Time;durP1;ratioP1;P1;durP2;ratioP2;P2;SDS_P1;SDS_P2;PMS_P1;PMS_P2;Temp;Humidity;BMP_temperature;BMP_pressure;BME280_temperature;BME280_humidity;BME280_pressure;Samples;Min_cycle;Max_cycle;Signal;HPM_P1;HPM_P2
2023/01/06 00:01:35;;;;;;;16.70;3.57;;;10.50;99.90;;;;;;4986069;28;20222;-79
2023/01/06 00:04:03;;;;;;;15.50;3.47;;;10.50;99.90;;;;;;4985903;28;20291;-85
2023/01/06 00:06:30;;;;;;;13.60;3.73;;;10.50;99.90;;;;;;4985550;28;20231;-78
2023/01/06 00:09:00;;;;;;;16.17;3.23;;;10.50;99.90;;;;;;4986620;28;20567;-78
2023/01/06 00:11:28;;;;;;;13.30;3.10;;;10.50;99.90;;;;;;4986093;28;20208;-78
2023/01/06 00:13:55;;;;;;;13.60;3.20;;;10.50;99.90;;;;;;4986212;28;20191;-79
2023/01/06 00:16:24;;;;;;;17.50;4.03;;;10.60;99.90;;;;;;4985521;28;20243;-79
2023/01/06 00:18:55;;;;;;;12.97;3.67;;;10.60;99.90;;;;;;4984792;28;20231;-78
2023/01/06 00:21:22;;;;;;;23.53;4.13;;;10.60;99.90;;;;;;4984628;28;20212;-78
2023/01/06 00:23:49;;;;;;;17.00;3.97;;;10.60;99.90;;;;;;4985117;28;20291;-78
2023/01/06 00:26:16;;;;;;;18.83;3.60;;;10.60;99.90;;;;;;4994691;28;20242;-79
2023/01/06 00:28:43;;;;;;;12.73;2.83;;;10.60;99.90;;;;;;5005293;28;20209;-77
2023/01/06 00:31:12;;;;;;;22.73;4.70;;;10.60;99.90;;;;;;5004945;28;20626;-80
2023/01/06 00:33:41;;;;;;;14.67;3.00;;;10.60;99.90;;;;;;5004318;28;20214;-78
2023/01/06 00:36:09;;;;;;;11.13;2.90;;;10.60;99.90;;;;;;4996316;28;20227;-78
2023/01/06 00:38:37;;;;;;;13.17;3.50;;;10.60;99.90;;;;;;4985547;28;20208;-78
2023/01/06 00:42:02;;;;;;;12.00;2.80;;;10.60;99.90;;;;;;4984969;28;20524;-79
2023/01/06 00:43:52;;;;;;;13.87;3.43;;;10.70;99.90;;;;;;4985226;28;20211;-78
2023/01/06 00:46:19;;;;;;;12.40;2.60;;;10.70;99.90;;;;;;4986053;28;20210;-79
2023/01/06 00:48:47;;;;;;;11.50;2.70;;;10.70;99.90;;;;;;4984390;28;20202;-78
2023/01/06 00:51:14;;;;;;;16.97;3.33;;;10.70;99.90;;;;;;4985395;28;20323;-78
2023/01/06 00:53:41;;;;;;;10.33;2.53;;;10.70;99.90;;;;;;4985621;28;20314;-78
2023/01/06 00:56:08;;;;;;;11.63;3.37;;;10.70;99.90;;;;;;4985155;28;20616;-79
2023/01/06 00:58:35;;;;;;;11.20;2.70;;;10.70;99.90;;;;;;4985393;28;20270;-79
2023/01/06 01:01:05;;;;;;;15.23;2.80;;;10.70;99.90;;;;;;4984879;28;20303;-78
2023/01/06 01:03:32;;;;;;;10.90;2.40;;;10.70;99.90;;;;;;4984534;28;20311;-79
2023/01/06 01:06:01;;;;;;;11.53;2.40;;;10.70;99.90;;;;;;4989943;28;20211;-84
2023/01/06 01:08:28;;;;;;;10.27;2.50;;;10.70;99.90;;;;;;5005881;28;20222;-83
2023/01/06 01:10:56;;;;;;;11.27;2.90;;;10.70;99.90;;;;;;5008118;28;20294;-82
2023/01/06 01:13:23;;;;;;;13.13;2.53;;;10.70;99.90;;;;;;5008846;28;20911;-87
2023/01/06 01:15:50;;;;;;;11.53;2.67;;;10.70;99.90;;;;;;4998098;28;20243;-83
2023/01/06 01:18:17;;;;;;;7.13;2.17;;;10.70;99.90;;;;;;4989174;28;20322;-84
2023/01/06 01:20:46;;;;;;;11.07;2.67;;;10.70;99.90;;;;;;4988970;28;20235;-85
2023/01/06 01:23:14;;;;;;;7.67;2.30;;;10.70;99.90;;;;;;4988055;28;20240;-89
2023/01/06 01:25:41;;;;;;;9.20;2.70;;;10.70;99.90;;;;;;4989266;28;20355;-86
2023/01/06 01:28:08;;;;;;;9.13;2.20;;;10.80;99.90;;;;;;4988791;28;20204;-81
2023/01/06 01:30:35;;;;;;;8.90;2.60;;;10.80;99.90;;;;;;4988292;28;20208;-85
2023/01/06 01:33:02;;;;;;;7.97;2.20;;;10.70;99.90;;;;;;4987772;28;20303;-80
2023/01/06 01:35:28;;;;;;;12.43;3.00;;;10.70;99.90;;;;;;4988860;28;20596;-84
2023/01/06 01:37:55;;;;;;;7.27;2.37;;;10.80;99.90;;;;;;4988259;28;20227;-83
2023/01/06 01:40:24;;;;;;;9.17;3.40;;;10.80;99.90;;;;;;4988133;28;20210;-80
2023/01/06 01:42:51;;;;;;;5.90;2.30;;;10.80;99.90;;;;;;5006268;28;20211;-81
2023/01/06 01:45:23;;;;;;;9.27;2.10;;;10.80;99.90;;;;;;5007837;28;20207;-81
2023/01/06 01:47:53;;;;;;;11.87;2.50;;;10.80;99.90;;;;;;5008320;28;20191;-82
2023/01/06 01:50:30;;;;;;;7.87;1.77;;;10.80;99.90;;;;;;5003932;28;20211;-80
2023/01/06 01:53:04;;;;;;;7.57;2.03;;;10.90;99.90;;;;;;4984555;28;20210;-79
2023/01/06 01:55:33;;;;;;;7.27;1.57;;;10.90;99.90;;;;;;4985072;28;20604;-79
2023/01/06 01:58:04;;;;;;;8.90;2.03;;;10.90;99.90;;;;;;4983991;28;20354;-77
2023/01/06 02:00:31;;;;;;;8.57;2.70;;;10.90;99.90;;;;;;4984433;28;20693;-78
2023/01/06 02:02:58;;;;;;;12.30;2.77;;;10.90;99.90;;;;;;4984885;28;20329;-77
2023/01/06 02:05:27;;;;;;;6.77;1.97;;;10.90;99.90;;;;;;4984278;28;20204;-77
2023/01/06 02:07:57;;;;;;;8.03;2.00;;;10.90;99.90;;;;;;4984107;28;20207;-78
2023/01/06 02:10:24;;;;;;;4.03;1.63;;;11.00;99.90;;;;;;4984514;28;20204;-78
2023/01/06 02:12:57;;;;;;;10.10;2.47;;;10.90;99.90;;;;;;4992458;28;20211;-80
2023/01/06 02:15:29;;;;;;;9.33;2.70;;;11.00;99.90;;;;;;5004121;28;20227;-78
2023/01/06 02:18:25;;;;;;;6.70;1.80;;;11.00;99.90;;;;;;4989838;28;20245;-79
2023/01/06 02:21:09;;;;;;;5.33;1.87;;;11.00;99.90;;;;;;4983458;28;20287;-78
2023/01/06 02:23:55;;;;;;;7.97;2.83;;;11.00;99.90;;;;;;4983754;28;20192;-78
2023/01/06 02:26:53;;;;;;;3.50;1.40;;;11.00;99.90;;;;;;4983381;28;20204;-77
2023/01/06 02:29:54;;;;;;;6.10;1.60;;;11.00;99.90;;;;;;4983689;28;20291;-78
2023/01/06 02:32:38;;;;;;;6.37;1.67;;;11.00;99.90;;;;;;4984459;28;20208;-78
2023/01/06 02:35:24;;;;;;;8.50;1.70;;;11.00;99.90;;;;;;4982773;28;20214;-77
2023/01/06 02:38:02;;;;;;;6.20;1.80;;;11.10;99.90;;;;;;4983475;28;20219;-79
2023/01/06 02:40:44;;;;;;;4.83;1.50;;;11.10;99.90;;;;;;4983383;28;20291;-78
2023/01/06 02:43:18;;;;;;;4.17;1.47;;;11.20;99.90;;;;;;4984395;28;20192;-78
2023/01/06 02:45:57;;;;;;;2.33;1.30;;;11.20;99.90;;;;;;5003816;28;20195;-79
2023/01/06 02:48:36;;;;;;;3.27;1.30;;;11.10;99.90;;;;;;5006085;28;20302;-79
2023/01/06 02:51:06;;;;;;;5.97;1.27;;;11.20;99.90;;;;;;5006938;28;20192;-77
2023/01/06 02:53:41;;;;;;;3.27;1.73;;;11.20;99.90;;;;;;4988964;28;20239;-78
2023/01/06 02:56:09;;;;;;;4.40;1.30;;;11.20;99.90;;;;;;4986941;28;20766;-78
2023/01/06 02:58:46;;;;;;;4.33;1.20;;;11.20;99.90;;;;;;4986991;28;20230;-78
2023/01/06 03:01:21;;;;;;;4.90;1.50;;;11.20;99.90;;;;;;4986711;28;20207;-79
2023/01/06 03:03:51;;;;;;;3.70;1.50;;;11.20;99.90;;;;;;4987268;28;20916;-77
2023/01/06 03:06:23;;;;;;;4.23;1.20;;;11.20;99.90;;;;;;4986892;28;20211;-78
2023/01/06 03:08:53;;;;;;;6.40;1.50;;;11.20;99.90;;;;;;4987008;28;20192;-79
2023/01/06 03:11:20;;;;;;;3.70;1.43;;;11.20;99.90;;;;;;4986941;28;20520;-80
2023/01/06 03:13:51;;;;;;;4.70;1.47;;;11.20;99.90;;;;;;4986942;28;20214;-77
2023/01/06 03:16:19;;;;;;;5.63;1.67;;;11.20;99.90;;;;;;4995213;28;21251;-79
2023/01/06 03:18:51;;;;;;;2.37;1.50;;;11.20;99.90;;;;;;5006531;28;20227;-79
2023/01/06 03:21:24;;;;;;;6.53;1.93;;;11.20;99.90;;;;;;5005943;28;20195;-79
2023/01/06 03:23:52;;;;;;;5.27;1.27;;;11.30;99.90;;;;;;5005741;28;20310;-78
2023/01/06 03:26:19;;;;;;;4.00;1.27;;;11.20;99.90;;;;;;4990634;28;20215;-81
2023/01/06 03:28:46;;;;;;;4.73;1.50;;;11.20;99.90;;;;;;4986528;28;20215;-79
2023/01/06 03:31:22;;;;;;;3.80;1.80;;;11.20;99.90;;;;;;4986551;28;20318;-78
2023/01/06 03:33:59;;;;;;;5.17;1.63;;;11.30;99.90;;;;;;4986915;28;20198;-78
2023/01/06 03:36:36;;;;;;;3.30;1.20;;;11.30;99.90;;;;;;4986387;28;20188;-77
2023/01/06 03:39:11;;;;;;;4.83;1.43;;;11.30;99.90;;;;;;4986525;28;21051;-75
2023/01/06 03:44:35;;;;;;;7.73;1.83;;;11.30;99.90;;;;;;4986282;28;20884;-77
2023/01/06 03:47:07;;;;;;;5.90;2.03;;;11.30;99.90;;;;;;4986622;28;20213;-79
2023/01/06 03:49:42;;;;;;;7.27;1.73;;;11.30;99.90;;;;;;4986131;28;20208;-78
2023/01/06 03:52:18;;;;;;;6.27;1.70;;;11.40;99.90;;;;;;4986372;28;20203;-80
2023/01/06 03:54:54;;;;;;;6.60;1.87;;;11.30;99.90;;;;;;4985746;28;20702;-77
2023/01/06 03:57:25;;;;;;;4.93;1.73;;;11.30;99.90;;;;;;4985210;28;20216;-78
2023/01/06 03:59:55;;;;;;;6.67;1.83;;;11.30;99.90;;;;;;4986119;28;20295;-79
2023/01/06 04:02:23;;;;;;;8.50;1.70;;;11.30;99.90;;;;;;4986466;28;20262;-76
2023/01/06 04:05:09;;;;;;;4.77;1.50;;;11.30;99.90;;;;;;4986168;28;20226;-78
2023/01/06 04:07:36;;;;;;;6.63;1.80;;;11.30;99.90;;;;;;4986174;28;20207;-80
2023/01/06 04:10:03;;;;;;;5.67;1.70;;;11.30;99.90;;;;;;4986406;28;20366;-77
2023/01/06 04:12:38;;;;;;;5.50;1.67;;;11.30;99.90;;;;;;4985639;28;20204;-79
2023/01/06 04:15:07;;;;;;;4.10;1.63;;;11.30;99.90;;;;;;4987106;28;20342;-78
2023/01/06 04:17:34;;;;;;;3.50;1.57;;;11.30;99.90;;;;;;4987329;28;20226;-80
2023/01/06 04:20:02;;;;;;;3.77;1.73;;;11.30;99.90;;;;;;4986437;28;20199;-79
2023/01/06 04:22:30;;;;;;;5.13;1.87;;;11.30;99.90;;;;;;4985784;28;20290;-78
2023/01/06 04:24:57;;;;;;;3.83;1.63;;;11.30;99.90;;;;;;4987452;28;20207;-79
2023/01/06 04:27:24;;;;;;;5.13;1.80;;;11.30;99.90;;;;;;4986337;28;20208;-81
2023/01/06 04:29:51;;;;;;;3.10;1.73;;;11.30;99.90;;;;;;4987345;28;20665;-78
2023/01/06 04:32:18;;;;;;;6.10;1.90;;;11.30;99.90;;;;;;4987358;28;20208;-78
2023/01/06 04:34:44;;;;;;;4.43;1.57;;;11.40;99.90;;;;;;4986658;28;20690;-82
2023/01/06 04:37:12;;;;;;;6.67;2.70;;;11.40;99.90;;;;;;4986857;28;20208;-80
2023/01/06 04:39:40;;;;;;;6.03;1.90;;;11.40;99.90;;;;;;4985218;28;20204;-80
2023/01/06 04:42:07;;;;;;;5.33;1.97;;;11.40;99.90;;;;;;4987341;28;20295;-81
2023/01/06 04:44:34;;;;;;;5.47;1.60;;;11.40;99.90;;;;;;4985980;28;20207;-81
2023/01/06 04:47:02;;;;;;;7.07;2.70;;;11.40;99.90;;;;;;4988699;28;20600;-80
2023/01/06 04:49:29;;;;;;;10.30;2.27;;;11.40;99.90;;;;;;5000082;28;20326;-79
2023/01/06 04:51:57;;;;;;;8.80;1.77;;;11.40;99.90;;;;;;5005528;28;20203;-79
2023/01/06 04:54:23;;;;;;;7.43;2.17;;;11.40;99.90;;;;;;5004943;28;20207;-78
2023/01/06 04:56:52;;;;;;;6.67;1.73;;;11.40;99.90;;;;;;5005973;28;20195;-79
2023/01/06 04:59:19;;;;;;;8.20;2.07;;;11.30;99.90;;;;;;5002575;28;20223;-81
2023/01/06 05:01:46;;;;;;;6.87;1.93;;;11.40;99.90;;;;;;4991007;28;20228;-89
2023/01/06 05:04:13;;;;;;;6.13;1.97;;;11.30;99.90;;;;;;4991842;28;20251;-88
2023/01/06 05:06:40;;;;;;;5.47;2.00;;;11.30;99.90;;;;;;5004624;28;20294;-92
2023/01/06 05:09:07;;;;;;;9.17;2.10;;;11.20;99.90;;;;;;5011430;28;20278;-86
2023/01/06 05:11:34;;;;;;;8.53;2.07;;;11.20;99.90;;;;;;5011954;28;20514;-83
2023/01/06 05:14:03;;;;;;;7.83;2.07;;;11.20;99.90;;;;;;5010708;28;20238;-84
2023/01/06 05:16:31;;;;;;;8.63;2.40;;;11.10;99.90;;;;;;5010729;28;20257;-91
2023/01/06 05:18:58;;;;;;;8.00;2.10;;;11.10;99.90;;;;;;5012250;28;20331;-89
2023/01/06 05:21:28;;;;;;;6.30;2.10;;;11.10;99.90;;;;;;5011637;28;20222;-89
2023/01/06 05:23:56;;;;;;;7.37;2.00;;;11.10;99.90;;;;;;5011701;28;20265;-92
2023/01/06 05:26:25;;;;;;;7.40;2.23;;;11.00;99.90;;;;;;5011789;28;20290;-91
2023/01/06 05:28:52;;;;;;;7.57;2.80;;;11.00;99.90;;;;;;5010829;28;20930;-88
2023/01/06 05:31:20;;;;;;;6.70;2.40;;;11.00;99.90;;;;;;5011698;28;20279;-91
2023/01/06 05:33:47;;;;;;;8.53;2.30;;;11.00;99.90;;;;;;5010146;28;20222;-85
2023/01/06 05:36:16;;;;;;;14.47;2.93;;;11.00;99.90;;;;;;5011031;28;20635;-84
2023/01/06 05:38:43;;;;;;;14.20;3.80;;;10.90;99.90;;;;;;5010194;28;20242;-85
2023/01/06 05:41:10;;;;;;;6.97;2.27;;;10.90;99.90;;;;;;5011376;28;20591;-86
2023/01/06 05:43:37;;;;;;;7.73;2.47;;;10.90;99.90;;;;;;5007649;28;20310;-79
2023/01/06 05:46:06;;;;;;;9.40;3.07;;;10.80;99.90;;;;;;5010452;28;20235;-88
2023/01/06 05:48:35;;;;;;;8.17;2.43;;;10.80;99.90;;;;;;5011056;28;20207;-90
2023/01/06 05:51:03;;;;;;;7.37;2.43;;;10.80;99.90;;;;;;5010968;28;20203;-88
2023/01/06 05:53:34;;;;;;;8.83;2.50;;;10.80;99.90;;;;;;5011267;28;20630;-90
2023/01/06 05:56:01;;;;;;;15.20;3.87;;;10.80;99.90;;;;;;5002864;28;20604;-87
2023/01/06 05:58:28;;;;;;;7.10;3.40;;;10.80;99.90;;;;;;4990965;28;20211;-90
2023/01/06 06:00:55;;;;;;;12.43;2.70;;;10.70;99.90;;;;;;5006593;28;20323;-91
2023/01/06 06:03:22;;;;;;;14.03;3.03;;;10.70;99.90;;;;;;5010384;28;20219;-79
2023/01/06 06:05:51;;;;;;;13.57;3.60;;;10.70;99.90;;;;;;5004216;28;20287;-80
2023/01/06 06:08:17;;;;;;;11.27;4.20;;;10.70;99.90;;;;;;4989739;28;20429;-90
2023/01/06 06:10:44;;;;;;;11.70;3.83;;;10.70;99.90;;;;;;4991372;28;20230;-84
2023/01/06 06:13:12;;;;;;;15.33;3.50;;;10.70;99.90;;;;;;4991726;28;20199;-84
2023/01/06 06:15:39;;;;;;;18.53;4.13;;;10.70;99.90;;;;;;4999269;28;20266;-88
2023/01/06 06:18:06;;;;;;;12.37;4.03;;;10.70;99.90;;;;;;5010948;28;20231;-90
2023/01/06 06:20:33;;;;;;;15.63;3.67;;;10.60;99.90;;;;;;5010636;28;20196;-86
2023/01/06 06:23:01;;;;;;;17.83;4.23;;;10.60;99.90;;;;;;5014604;28;20608;-85
2023/01/06 06:25:28;;;;;;;17.07;4.37;;;10.60;99.90;;;;;;5008863;28;20807;-87
2023/01/06 06:27:58;;;;;;;19.93;5.10;;;10.60;99.90;;;;;;5008898;28;20533;-79
2023/01/06 06:30:25;;;;;;;22.50;7.03;;;10.60;99.90;;;;;;5010306;28;20207;-79
2023/01/06 06:32:52;;;;;;;37.47;8.27;;;10.60;99.90;;;;;;4993575;28;20216;-83
2023/01/06 06:35:19;;;;;;;31.47;5.70;;;10.60;99.90;;;;;;4989212;28;20204;-82
2023/01/06 06:37:46;;;;;;;23.43;5.73;;;10.60;99.90;;;;;;4989426;28;20544;-78
2023/01/06 06:40:14;;;;;;;22.27;7.20;;;10.60;99.90;;;;;;4988352;28;20291;-80
2023/01/06 06:42:41;;;;;;;24.13;6.47;;;10.60;99.90;;;;;;4988633;28;20215;-82
2023/01/06 06:45:09;;;;;;;24.23;5.57;;;10.60;99.90;;;;;;4989106;28;20203;-80
2023/01/06 06:47:36;;;;;;;26.87;5.07;;;10.60;99.90;;;;;;4987763;28;20208;-78
2023/01/06 06:50:03;;;;;;;25.37;4.77;;;10.60;99.90;;;;;;4988883;28;20214;-78
2023/01/06 06:52:30;;;;;;;26.90;4.80;;;10.60;99.90;;;;;;4992530;28;20196;-91
2023/01/06 06:54:57;;;;;;;26.27;4.63;;;10.70;99.90;;;;;;4994071;28;20200;-91
2023/01/06 06:57:25;;;;;;;20.50;4.20;;;10.60;99.90;;;;;;4994435;28;20206;-91
2023/01/06 06:59:52;;;;;;;23.67;3.90;;;10.60;99.90;;;;;;4991510;28;20234;-79
2023/01/06 07:02:19;;;;;;;25.57;3.70;;;10.60;99.90;;;;;;4988242;28;20533;-79
2023/01/06 07:04:46;;;;;;;23.50;4.20;;;10.60;99.90;;;;;;4988329;28;20624;-82
2023/01/06 07:07:13;;;;;;;24.17;4.97;;;10.50;99.90;;;;;;4992255;28;20208;-87
2023/01/06 07:09:40;;;;;;;19.27;3.93;;;10.50;99.90;;;;;;5004402;28;20246;-92
2023/01/06 07:12:07;;;;;;;15.37;4.33;;;10.40;99.90;;;;;;5013478;28;20680;-84
2023/01/06 07:14:35;;;;;;;22.73;4.03;;;10.40;99.90;;;;;;5009391;28;20196;-91
2023/01/06 07:17:02;;;;;;;23.50;3.20;;;10.30;99.90;;;;;;5003825;28;20603;-81
2023/01/06 07:19:29;;;;;;;14.30;3.00;;;10.30;99.90;;;;;;4994119;28;20294;-88
2023/01/06 07:21:56;;;;;;;19.17;3.30;;;10.20;99.90;;;;;;4994098;28;20238;-91
2023/01/06 07:24:23;;;;;;;16.90;3.43;;;10.10;99.90;;;;;;4994173;28;20530;-91
2023/01/06 07:26:50;;;;;;;20.77;3.80;;;10.00;99.90;;;;;;4993274;28;20601;-88
2023/01/06 07:29:17;;;;;;;13.77;3.07;;;9.90;99.90;;;;;;5007310;28;20267;-90
2023/01/06 07:31:45;;;;;;;21.73;4.00;;;9.90;99.90;;;;;;5012942;28;20290;-85
2023/01/06 07:34:12;;;;;;;21.60;3.83;;;9.80;99.90;;;;;;5010305;28;20313;-89
2023/01/06 07:36:39;;;;;;;12.37;3.17;;;9.80;99.90;;;;;;5007429;28;20238;-89
2023/01/06 07:39:06;;;;;;;17.70;3.60;;;9.80;99.90;;;;;;5011955;28;20310;-88
2023/01/06 07:41:33;;;;;;;8.97;2.50;;;9.70;99.90;;;;;;5012175;28;20280;-89
2023/01/06 07:44:00;;;;;;;15.97;2.90;;;9.60;99.90;;;;;;5013030;28;20282;-90
2023/01/06 07:46:27;;;;;;;18.47;3.50;;;9.70;99.90;;;;;;5011532;28;20200;-93
2023/01/06 07:48:55;;;;;;;15.87;3.90;;;9.70;99.90;;;;;;5011731;28;20291;-89
2023/01/06 07:51:22;;;;;;;13.70;3.10;;;9.70;99.90;;;;;;5012548;28;20863;-89
2023/01/06 07:53:49;;;;;;;14.03;2.73;;;9.70;99.90;;;;;;5012412;28;20596;-91
2023/01/06 07:56:15;;;;;;;14.73;3.23;;;9.70;99.90;;;;;;5009773;28;20869;-90
2023/01/06 07:58:42;;;;;;;17.60;3.07;;;9.60;99.90;;;;;;5003433;28;20684;-77
2023/01/06 08:01:09;;;;;;;14.67;2.70;;;9.60;99.90;;;;;;4988471;28;20237;-79
2023/01/06 08:03:36;;;;;;;20.07;2.80;;;9.60;99.90;;;;;;4986105;28;20214;-78
2023/01/06 08:06:08;;;;;;;19.83;3.70;;;9.60;99.90;;;;;;4986762;28;20295;-80
2023/01/06 08:08:37;;;;;;;11.03;2.50;;;9.60;99.90;;;;;;4986208;28;20212;-76
2023/01/06 08:11:04;;;;;;;14.30;2.70;;;9.50;99.90;;;;;;4985685;28;20208;-78
2023/01/06 08:13:32;;;;;;;11.10;2.47;;;9.50;99.90;;;;;;4956374;28;20291;-76
2023/01/06 08:15:59;;;;;;;16.70;3.33;;;9.50;99.90;;;;;;5006717;28;20705;-81
2023/01/06 08:18:28;;;;;;;11.97;3.73;;;9.40;99.90;;;;;;5004344;28;20749;-81
2023/01/06 08:21:00;;;;;;;13.50;3.30;;;9.50;99.90;;;;;;4992992;28;20630;-77
2023/01/06 08:23:29;;;;;;;10.87;3.53;;;9.50;99.90;;;;;;5003020;28;20207;-77
2023/01/06 08:26:02;;;;;;;8.30;2.33;;;9.50;99.90;;;;;;5005226;28;20226;-78
2023/01/06 08:28:29;;;;;;;11.47;3.20;;;9.50;99.90;;;;;;5004997;28;20192;-77
2023/01/06 08:30:56;;;;;;;11.97;3.60;;;9.50;99.90;;;;;;5006537;28;20211;-82
2023/01/06 08:33:24;;;;;;;11.70;2.47;;;9.50;99.90;;;;;;5005662;28;20215;-87
2023/01/06 08:35:51;;;;;;;9.97;3.00;;;9.60;99.90;;;;;;5007010;28;20530;-80
2023/01/06 08:38:18;;;;;;;8.63;2.77;;;9.50;99.90;;;;;;5003293;28;20214;-76
2023/01/06 08:40:47;;;;;;;14.23;2.63;;;9.60;99.90;;;;;;4991874;28;20721;-77
2023/01/06 08:43:13;;;;;;;7.33;1.90;;;9.60;99.90;;;;;;4985820;28;20192;-86
2023/01/06 08:45:40;;;;;;;8.83;2.63;;;9.60;99.90;;;;;;4987017;28;20192;-78
2023/01/06 08:48:07;;;;;;;7.90;2.10;;;9.60;99.90;;;;;;4987691;28;20656;-78
2023/01/06 08:50:34;;;;;;;11.67;2.80;;;9.60;99.90;;;;;;4988319;28;20290;-83
2023/01/06 08:53:01;;;;;;;13.97;2.77;;;9.60;99.90;;;;;;4987558;28;20749;-80
2023/01/06 08:55:28;;;;;;;12.37;2.70;;;9.60;99.90;;;;;;4987647;28;20207;-85
2023/01/06 08:57:57;;;;;;;7.27;2.30;;;9.60;99.90;;;;;;4993360;28;20298;-81
2023/01/06 09:00:23;;;;;;;13.53;3.40;;;9.60;99.90;;;;;;5008583;28;20231;-87
2023/01/06 09:02:51;;;;;;;12.90;2.97;;;9.60;99.90;;;;;;5009789;28;20210;-89
2023/01/06 09:05:18;;;;;;;10.03;2.53;;;9.60;99.90;;;;;;4991419;28;20938;-87
2023/01/06 09:07:44;;;;;;;14.30;2.90;;;9.70;99.90;;;;;;4987612;28;20290;-77
2023/01/06 09:10:11;;;;;;;15.43;4.30;;;9.70;99.90;;;;;;4984843;28;20294;-79
2023/01/06 09:12:39;;;;;;;14.20;3.67;;;9.60;99.90;;;;;;4985655;28;20306;-80
2023/01/06 09:15:08;;;;;;;17.47;4.47;;;9.60;99.90;;;;;;4987946;28;20515;-89
2023/01/06 09:17:35;;;;;;;17.17;5.10;;;9.70;99.90;;;;;;4991673;28;20453;-91
2023/01/06 09:20:02;;;;;;;16.10;3.80;;;9.70;99.90;;;;;;4991262;28;20310;-88
2023/01/06 09:22:29;;;;;;;14.33;3.60;;;9.60;99.90;;;;;;4990911;28;20294;-83
2023/01/06 09:24:56;;;;;;;12.93;3.27;;;9.60;99.90;;;;;;4994418;28;20215;-77
2023/01/06 09:27:23;;;;;;;10.50;3.23;;;9.60;99.90;;;;;;5007142;28;20217;-81
2023/01/06 09:29:49;;;;;;;17.67;4.07;;;9.70;99.90;;;;;;5003084;28;20298;-81
2023/01/06 09:32:18;;;;;;;14.63;4.20;;;9.70;99.90;;;;;;4996794;28;20199;-85
2023/01/06 09:34:45;;;;;;;9.50;3.63;;;9.70;99.90;;;;;;5002412;28;20213;-81
2023/01/06 09:37:12;;;;;;;10.07;3.50;;;9.70;99.90;;;;;;5004078;28;20216;-77
2023/01/06 09:39:39;;;;;;;13.07;3.60;;;9.60;99.90;;;;;;5002103;28;20318;-78
2023/01/06 09:42:29;;;;;;;11.83;3.60;;;9.70;99.90;;;;;;5003569;28;20709;-78
2023/01/06 09:45:00;;;;;;;13.33;3.60;;;9.70;99.90;;;;;;4984675;28;20218;-78
2023/01/06 09:47:31;;;;;;;11.17;3.27;;;9.70;99.90;;;;;;4983479;28;20722;-78
2023/01/06 09:50:05;;;;;;;18.43;4.07;;;9.80;99.90;;;;;;4983778;28;20736;-77
2023/01/06 09:52:36;;;;;;;20.20;4.63;;;9.80;99.90;;;;;;4984451;28;20203;-77
2023/01/06 09:55:06;;;;;;;10.70;3.80;;;9.80;99.90;;;;;;4982022;28;20291;-77
2023/01/06 09:57:37;;;;;;;14.83;3.27;;;9.80;99.90;;;;;;4990628;28;20203;-76
2023/01/06 10:00:07;;;;;;;12.73;3.87;;;9.80;99.90;;;;;;5005420;28;20981;-77
2023/01/06 10:02:38;;;;;;;10.80;2.80;;;9.80;99.90;;;;;;5009229;23;20358;-77
2023/01/06 10:05:22;;;;;;;10.33;3.10;;;9.80;99.90;;;;;;4986639;28;20283;-76
2023/01/06 10:07:58;;;;;;;13.03;3.43;;;9.80;99.90;;;;;;4988597;28;20220;-77
2023/01/06 10:10:36;;;;;;;9.17;2.43;;;9.80;99.90;;;;;;4987716;28;20202;-77
2023/01/06 10:13:17;;;;;;;13.73;2.90;;;9.80;99.90;;;;;;4985428;28;20310;-76
2023/01/06 10:15:53;;;;;;;11.83;2.40;;;9.80;99.90;;;;;;4997232;28;20604;-79
2023/01/06 10:18:32;;;;;;;10.53;1.80;;;9.80;99.90;;;;;;4988281;28;20227;-77
2023/01/06 10:21:09;;;;;;;12.17;2.87;;;9.80;99.90;;;;;;4988326;28;20649;-76
2023/01/06 10:24:08;;;;;;;13.27;2.53;;;9.90;99.90;;;;;;4987457;28;20216;-77
2023/01/06 10:26:43;;;;;;;13.40;2.57;;;9.90;99.90;;;;;;4987514;28;20247;-77
2023/01/06 10:29:14;;;;;;;9.60;2.87;;;9.90;99.90;;;;;;4985940;28;20214;-77
2023/01/06 10:31:44;;;;;;;10.33;2.57;;;10.00;99.90;;;;;;4968244;28;20211;-75
2023/01/06 10:34:20;;;;;;;15.03;2.77;;;10.00;99.90;;;;;;4968799;28;20210;-78
2023/01/06 10:36:53;;;;;;;16.80;2.40;;;10.00;99.90;;;;;;4968354;28;20214;-77
2023/01/06 10:39:24;;;;;;;10.23;2.40;;;10.10;99.90;;;;;;4967744;28;20208;-77
2023/01/06 10:42:54;;;;;;;13.03;2.60;;;10.10;99.90;;;;;;4968335;28;20312;-77
2023/01/06 10:44:45;;;;;;;15.23;2.57;;;10.10;99.90;;;;;;4967780;28;20209;-77
2023/01/06 10:47:15;;;;;;;12.30;2.37;;;10.10;99.90;;;;;;4967479;28;20206;-77
2023/01/06 10:49:44;;;;;;;13.57;2.77;;;10.10;99.90;;;;;;4967948;28;20280;-77
2023/01/06 10:52:12;;;;;;;14.63;3.70;;;10.10;99.90;;;;;;4967553;28;20295;-77
2023/01/06 10:54:40;;;;;;;15.30;3.40;;;10.10;99.90;;;;;;4974340;28;20295;-81
2023/01/06 10:57:16;;;;;;;12.23;2.10;;;10.10;99.90;;;;;;4984134;28;20294;-79
2023/01/06 11:00:22;;;;;;;10.83;3.03;;;10.10;99.90;;;;;;4984147;28;20218;-77
2023/01/06 11:02:51;;;;;;;10.53;3.27;;;10.10;99.90;;;;;;4980558;28;20231;-77
2023/01/06 11:05:22;;;;;;;9.53;2.47;;;10.10;99.90;;;;;;4985592;28;20196;-78
2023/01/06 11:07:54;;;;;;;13.60;2.73;;;10.10;99.90;;;;;;4967673;28;20204;-80
2023/01/06 11:10:37;;;;;;;14.37;2.97;;;10.20;99.90;;;;;;4967200;28;20808;-77
2023/01/06 11:13:06;;;;;;;13.27;2.83;;;10.20;99.90;;;;;;4968063;28;20200;-78
2023/01/06 11:15:39;;;;;;;11.80;2.73;;;10.30;99.90;;;;;;4968856;28;20576;-75
2023/01/06 11:18:19;;;;;;;10.47;2.50;;;10.20;99.90;;;;;;4986303;28;20351;-75
2023/01/06 11:21:03;;;;;;;11.83;2.60;;;10.20;99.90;;;;;;4969513;28;20248;-75
2023/01/06 11:23:30;;;;;;;13.90;2.60;;;10.30;99.90;;;;;;4966977;28;20203;-75
2023/01/06 11:26:17;;;;;;;9.43;2.73;;;10.30;99.90;;;;;;4966915;28;20229;-76
2023/01/06 11:28:45;;;;;;;7.63;2.13;;;10.30;99.90;;;;;;4965485;28;20915;-75
2023/01/06 11:31:19;;;;;;;15.63;3.00;;;10.30;99.90;;;;;;4967135;28;20209;-75
2023/01/06 11:33:50;;;;;;;13.13;3.03;;;10.40;99.90;;;;;;4967691;28;20313;-74
2023/01/06 11:36:20;;;;;;;9.93;2.87;;;10.40;99.90;;;;;;4967307;28;20211;-75
2023/01/06 11:38:49;;;;;;;9.97;2.83;;;10.40;99.90;;;;;;4967017;28;20319;-75
2023/01/06 11:41:24;;;;;;;21.10;4.70;;;10.40;99.90;;;;;;4967029;28;21002;-75
2023/01/06 11:43:54;;;;;;;14.37;4.03;;;10.40;99.90;;;;;;4967488;28;20224;-75
2023/01/06 11:46:25;;;;;;;14.70;3.10;;;10.40;99.90;;;;;;4966469;28;20204;-74
2023/01/06 11:49:00;;;;;;;15.80;3.50;;;10.40;99.90;;;;;;4966703;28;20485;-75
2023/01/06 11:51:47;;;;;;;14.87;3.67;;;10.40;99.90;;;;;;4982313;28;20607;-77
2023/01/06 11:54:24;;;;;;;19.57;3.60;;;10.50;99.90;;;;;;4976624;28;20202;-75
2023/01/06 11:57:19;;;;;;;15.33;3.67;;;10.50;99.90;;;;;;4971818;28;20307;-75
2023/01/06 12:00:23;;;;;;;18.03;3.60;;;10.50;99.90;;;;;;4987780;28;20230;-76
2023/01/06 12:03:02;;;;;;;14.20;2.90;;;10.50;99.90;;;;;;4962450;28;20311;-73
2023/01/06 12:05:35;;;;;;;12.17;3.27;;;10.50;99.90;;;;;;4967252;28;20990;-76
2023/01/06 12:08:10;;;;;;;16.37;3.70;;;10.50;99.90;;;;;;4986616;28;20209;-77
2023/01/06 12:10:40;;;;;;;17.03;3.27;;;10.50;99.90;;;;;;4991162;28;20211;-76
2023/01/06 12:13:09;;;;;;;11.53;3.13;;;10.50;99.90;;;;;;4966372;28;20498;-76
2023/01/06 12:15:39;;;;;;;8.57;2.63;;;10.50;99.90;;;;;;4966501;28;20200;-77
2023/01/06 12:18:14;;;;;;;14.10;3.43;;;10.50;99.90;;;;;;4966101;28;20240;-76
2023/01/06 12:20:44;;;;;;;13.57;2.80;;;10.60;99.90;;;;;;4977618;28;20342;-76
2023/01/06 12:23:18;;;;;;;12.70;3.23;;;10.60;99.90;;;;;;4986874;28;20202;-74
2023/01/06 12:25:47;;;;;;;10.50;3.03;;;10.60;99.90;;;;;;4980603;28;20206;-75
2023/01/06 12:28:18;;;;;;;16.77;3.03;;;10.60;99.90;;;;;;4965743;28;20200;-75
2023/01/06 12:30:53;;;;;;;14.13;3.07;;;10.50;99.90;;;;;;4965159;28;20188;-77
2023/01/06 12:33:26;;;;;;;17.70;2.80;;;10.50;99.90;;;;;;4964971;28;20592;-75
2023/01/06 12:35:56;;;;;;;12.00;3.23;;;10.40;99.90;;;;;;4965088;28;20195;-78
2023/01/06 12:38:46;;;;;;;16.77;3.83;;;10.40;99.90;;;;;;4964952;28;20875;-74
2023/01/06 12:41:17;;;;;;;17.13;3.57;;;10.40;99.90;;;;;;4965624;28;20617;-76
2023/01/06 12:43:54;;;;;;;13.63;3.67;;;10.40;99.90;;;;;;4966398;28;20193;-75
2023/01/06 12:46:26;;;;;;;18.43;3.63;;;10.40;99.90;;;;;;4966398;28;20204;-74
2023/01/06 12:48:56;;;;;;;12.10;2.70;;;10.40;99.90;;;;;;4966565;28;20496;-76
2023/01/06 12:51:28;;;;;;;16.00;3.20;;;10.40;99.90;;;;;;4966108;28;20196;-75
2023/01/06 12:54:02;;;;;;;10.63;2.63;;;10.30;99.90;;;;;;4965953;28;20439;-75
2023/01/06 12:56:42;;;;;;;12.00;3.17;;;10.30;99.90;;;;;;4966057;28;20247;-75
2023/01/06 12:59:18;;;;;;;14.87;3.33;;;10.30;99.90;;;;;;4966809;28;20196;-78
2023/01/06 13:01:49;;;;;;;12.93;3.60;;;10.20;99.90;;;;;;4966183;28;20232;-76
2023/01/06 13:04:57;;;;;;;9.80;2.43;;;10.20;99.90;;;;;;4966504;28;20602;-76